sensor_id;sensor_type;location;lat;lon;timestamp;P1;durP1;ratioP1;P2;durP2;ratioP2
77457;SDS011;66541;49.346;8.648;2023-04-24T00:01:13;3.30;;;0.20;;
77457;SDS011;66541;49.346;8.648;2023-04-24T00:03:40;3.60;;;0.20;;
77457;SDS011;66541;49.346;8.648;2023-04-24T00:06:06;1.88;;;0.30;;
77457;SDS011;66541;49.346;8.648;2023-04-24T00:08:33;0.85;;;0.20;;
77457;SDS011;66541;49.346;8.648;2023-04-24T00:10:58;1.55;;;0.20;;
77457;SDS011;66541;49.346;8.648;2023-04-24T00:13:24;2.25;;;0.20;;
77457;SDS011;66541;49.346;8.648;2023-04-24T00:15:49;1.05;;;0.15;;
77457;SDS011;66541;49.346;8.648;2023-04-24T00:18:14;1.98;;;0.10;;
77457;SDS011;66541;49.346;8.648;2023-04-24T00:20:40;1.50;;;0.25;;
77457;SDS011;66541;49.346;8.648;2023-04-24T00:23:05;2.50;;;0.30;;
77457;SDS011;66541;49.346;8.648;2023-04-24T00:25:31;1.60;;;0.25;;
77457;SDS011;66541;49.346;8.648;2023-04-24T00:27:56;3.22;;;0.40;;
77457;SDS011;66541;49.346;8.648;2023-04-24T00:30:21;3.03;;;0.30;;
77457;SDS011;66541;49.346;8.648;2023-04-24T00:32:47;2.65;;;0.20;;
77457;SDS011;66541;49.346;8.648;2023-04-24T00:35:12;1.95;;;0.20;;
77457;SDS011;66541;49.346;8.648;2023-04-24T00:37:37;1.92;;;0.30;;
77457;SDS011;66541;49.346;8.648;2023-04-24T00:40:03;1.73;;;0.20;;
77457;SDS011;66541;49.346;8.648;2023-04-24T00:42:28;2.03;;;0.30;;
77457;SDS011;66541;49.346;8.648;2023-04-24T00:44:54;2.88;;;0.20;;
77457;SDS011;66541;49.346;8.648;2023-04-24T00:47:21;2.22;;;0.22;;
77457;SDS011;66541;49.346;8.648;2023-04-24T00:49:46;5.88;;;0.35;;
77457;SDS011;66541;49.346;8.648;2023-04-24T00:52:12;0.70;;;0.10;;
77457;SDS011;66541;49.346;8.648;2023-04-24T00:54:42;2.28;;;0.20;;
77457;SDS011;66541;49.346;8.648;2023-04-24T00:57:08;1.88;;;0.20;;
77457;SDS011;66541;49.346;8.648;2023-04-24T00:59:33;1.88;;;0.22;;
77457;SDS011;66541;49.346;8.648;2023-04-24T01:01:58;1.95;;;0.10;;
77457;SDS011;66541;49.346;8.648;2023-04-24T01:04:24;1.70;;;0.10;;
77457;SDS011;66541;49.346;8.648;2023-04-24T01:06:49;1.95;;;0.28;;
77457;SDS011;66541;49.346;8.648;2023-04-24T01:09:15;1.73;;;0.20;;
77457;SDS011;66541;49.346;8.648;2023-04-24T01:11:41;1.50;;;0.25;;
77457;SDS011;66541;49.346;8.648;2023-04-24T01:14:07;5.20;;;0.30;;
77457;SDS011;66541;49.346;8.648;2023-04-24T01:16:33;1.70;;;0.40;;
77457;SDS011;66541;49.346;8.648;2023-04-24T01:18:58;1.10;;;0.20;;
77457;SDS011;66541;49.346;8.648;2023-04-24T01:21:23;2.35;;;0.20;;
77457;SDS011;66541;49.346;8.648;2023-04-24T01:23:52;0.90;;;0.10;;
77457;SDS011;66541;49.346;8.648;2023-04-24T01:26:18;1.77;;;0.20;;
77457;SDS011;66541;49.346;8.648;2023-04-24T01:28:45;1.50;;;0.20;;
77457;SDS011;66541;49.346;8.648;2023-04-24T01:31:11;2.00;;;0.20;;
77457;SDS011;66541;49.346;8.648;2023-04-24T01:33:36;3.47;;;0.30;;
77457;SDS011;66541;49.346;8.648;2023-04-24T01:36:01;3.20;;;0.40;;
77457;SDS011;66541;49.346;8.648;2023-04-24T01:38:27;1.75;;;0.30;;
77457;SDS011;66541;49.346;8.648;2023-04-24T01:40:52;1.17;;;0.20;;
77457;SDS011;66541;49.346;8.648;2023-04-24T01:43:17;5.03;;;0.30;;
77457;SDS011;66541;49.346;8.648;2023-04-24T01:45:43;2.30;;;0.40;;
77457;SDS011;66541;49.346;8.648;2023-04-24T01:48:08;1.58;;;0.17;;
77457;SDS011;66541;49.346;8.648;2023-04-24T01:50:34;1.83;;;0.20;;
77457;SDS011;66541;49.346;8.648;2023-04-24T01:52:59;3.55;;;0.20;;
77457;SDS011;66541;49.346;8.648;2023-04-24T01:55:24;2.17;;;0.40;;
77457;SDS011;66541;49.346;8.648;2023-04-24T01:57:50;1.13;;;0.20;;
77457;SDS011;66541;49.346;8.648;2023-04-24T02:00:17;3.35;;;0.20;;
77457;SDS011;66541;49.346;8.648;2023-04-24T02:02:42;3.78;;;0.20;;
77457;SDS011;66541;49.346;8.648;2023-04-24T02:05:08;4.32;;;0.22;;
77457;SDS011;66541;49.346;8.648;2023-04-24T02:07:33;1.35;;;0.15;;
77457;SDS011;66541;49.346;8.648;2023-04-24T02:09:58;2.33;;;0.20;;
77457;SDS011;66541;49.346;8.648;2023-04-24T02:12:24;1.95;;;0.20;;
77457;SDS011;66541;49.346;8.648;2023-04-24T02:14:49;1.50;;;0.25;;
77457;SDS011;66541;49.346;8.648;2023-04-24T02:17:15;2.35;;;0.20;;
77457;SDS011;66541;49.346;8.648;2023-04-24T02:19:41;4.22;;;0.13;;
77457;SDS011;66541;49.346;8.648;2023-04-24T02:22:06;2.28;;;0.20;;
77457;SDS011;66541;49.346;8.648;2023-04-24T02:24:31;2.15;;;0.20;;
77457;SDS011;66541;49.346;8.648;2023-04-24T02:26:57;1.95;;;0.20;;
77457;SDS011;66541;49.346;8.648;2023-04-24T02:29:22;3.67;;;0.50;;
77457;SDS011;66541;49.346;8.648;2023-04-24T02:31:48;2.88;;;0.20;;
77457;SDS011;66541;49.346;8.648;2023-04-24T02:34:13;1.73;;;0.20;;
77457;SDS011;66541;49.346;8.648;2023-04-24T02:36:38;3.92;;;0.20;;
77457;SDS011;66541;49.346;8.648;2023-04-24T02:39:04;2.58;;;0.20;;
77457;SDS011;66541;49.346;8.648;2023-04-24T02:41:29;1.92;;;0.10;;
77457;SDS011;66541;49.346;8.648;2023-04-24T02:43:57;1.98;;;0.40;;
77457;SDS011;66541;49.346;8.648;2023-04-24T02:46:23;2.40;;;0.30;;
77457;SDS011;66541;49.346;8.648;2023-04-24T02:48:48;1.90;;;0.30;;
77457;SDS011;66541;49.346;8.648;2023-04-24T02:51:13;1.83;;;0.20;;
77457;SDS011;66541;49.346;8.648;2023-04-24T02:53:38;2.58;;;0.25;;
77457;SDS011;66541;49.346;8.648;2023-04-24T02:56:04;3.13;;;0.28;;
77457;SDS011;66541;49.346;8.648;2023-04-24T02:58:30;1.85;;;0.20;;
77457;SDS011;66541;49.346;8.648;2023-04-24T03:00:56;1.23;;;0.20;;
77457;SDS011;66541;49.346;8.648;2023-04-24T03:03:21;2.10;;;0.28;;
77457;SDS011;66541;49.346;8.648;2023-04-24T03:05:47;2.13;;;0.20;;
77457;SDS011;66541;49.346;8.648;2023-04-24T03:08:12;2.67;;;0.22;;
77457;SDS011;66541;49.346;8.648;2023-04-24T03:10:37;1.42;;;0.38;;
77457;SDS011;66541;49.346;8.648;2023-04-24T03:13:03;1.35;;;0.10;;
77457;SDS011;66541;49.346;8.648;2023-04-24T03:15:28;2.88;;;0.20;;
77457;SDS011;66541;49.346;8.648;2023-04-24T03:17:54;2.63;;;0.40;;
77457;SDS011;66541;49.346;8.648;2023-04-24T03:20:20;1.88;;;0.20;;
77457;SDS011;66541;49.346;8.648;2023-04-24T03:22:45;1.60;;;0.20;;
77457;SDS011;66541;49.346;8.648;2023-04-24T03:25:10;3.28;;;0.30;;
77457;SDS011;66541;49.346;8.648;2023-04-24T03:27:36;2.47;;;0.40;;
77457;SDS011;66541;49.346;8.648;2023-04-24T03:30:02;3.00;;;0.60;;
77457;SDS011;66541;49.346;8.648;2023-04-24T03:32:28;3.20;;;0.35;;
77457;SDS011;66541;49.346;8.648;2023-04-24T03:34:53;3.97;;;0.70;;
77457;SDS011;66541;49.346;8.648;2023-04-24T03:37:18;3.33;;;0.60;;
77457;SDS011;66541;49.346;8.648;2023-04-24T03:39:43;2.90;;;0.40;;
77457;SDS011;66541;49.346;8.648;2023-04-24T03:42:09;2.25;;;0.28;;
77457;SDS011;66541;49.346;8.648;2023-04-24T03:44:35;2.45;;;0.30;;
77457;SDS011;66541;49.346;8.648;2023-04-24T03:47:00;2.53;;;0.32;;
77457;SDS011;66541;49.346;8.648;2023-04-24T03:49:26;4.38;;;0.47;;
77457;SDS011;66541;49.346;8.648;2023-04-24T03:51:51;3.08;;;0.50;;
77457;SDS011;66541;49.346;8.648;2023-04-24T03:54:17;1.60;;;0.40;;
77457;SDS011;66541;49.346;8.648;2023-04-24T03:56:43;3.50;;;0.52;;
77457;SDS011;66541;49.346;8.648;2023-04-24T03:59:08;2.95;;;0.60;;
77457;SDS011;66541;49.346;8.648;2023-04-24T04:01:34;3.17;;;0.50;;
77457;SDS011;66541;49.346;8.648;2023-04-24T04:04:02;2.85;;;0.43;;
77457;SDS011;66541;49.346;8.648;2023-04-24T04:06:29;3.47;;;0.57;;
77457;SDS011;66541;49.346;8.648;2023-04-24T04:08:55;3.13;;;0.47;;
77457;SDS011;66541;49.346;8.648;2023-04-24T04:11:21;2.33;;;0.40;;
77457;SDS011;66541;49.346;8.648;2023-04-24T04:13:46;2.22;;;0.38;;
77457;SDS011;66541;49.346;8.648;2023-04-24T04:16:12;2.97;;;0.50;;
77457;SDS011;66541;49.346;8.648;2023-04-24T04:18:38;2.83;;;0.50;;
77457;SDS011;66541;49.346;8.648;2023-04-24T04:21:03;6.05;;;0.52;;
77457;SDS011;66541;49.346;8.648;2023-04-24T04:23:28;3.25;;;0.60;;
77457;SDS011;66541;49.346;8.648;2023-04-24T04:25:54;3.22;;;0.65;;
77457;SDS011;66541;49.346;8.648;2023-04-24T04:28:20;2.17;;;0.52;;
77457;SDS011;66541;49.346;8.648;2023-04-24T04:30:45;3.70;;;0.63;;
77457;SDS011;66541;49.346;8.648;2023-04-24T04:33:12;4.82;;;0.60;;
77457;SDS011;66541;49.346;8.648;2023-04-24T04:35:37;3.10;;;0.52;;
77457;SDS011;66541;49.346;8.648;2023-04-24T04:38:02;4.25;;;0.70;;
77457;SDS011;66541;49.346;8.648;2023-04-24T04:40:27;2.92;;;0.50;;
77457;SDS011;66541;49.346;8.648;2023-04-24T04:42:53;3.92;;;0.65;;
77457;SDS011;66541;49.346;8.648;2023-04-24T04:45:18;4.88;;;0.70;;
77457;SDS011;66541;49.346;8.648;2023-04-24T04:47:45;3.20;;;0.40;;
77457;SDS011;66541;49.346;8.648;2023-04-24T04:50:11;2.97;;;0.52;;
77457;SDS011;66541;49.346;8.648;2023-04-24T04:52:36;5.43;;;0.50;;
77457;SDS011;66541;49.346;8.648;2023-04-24T04:55:01;2.55;;;0.50;;
77457;SDS011;66541;49.346;8.648;2023-04-24T04:57:27;2.78;;;0.52;;
77457;SDS011;66541;49.346;8.648;2023-04-24T04:59:53;3.72;;;0.57;;
77457;SDS011;66541;49.346;8.648;2023-04-24T05:02:18;3.70;;;0.70;;
77457;SDS011;66541;49.346;8.648;2023-04-24T05:04:43;4.35;;;0.60;;
77457;SDS011;66541;49.346;8.648;2023-04-24T05:07:09;3.13;;;0.60;;
77457;SDS011;66541;49.346;8.648;2023-04-24T05:09:35;3.10;;;0.40;;
77457;SDS011;66541;49.346;8.648;2023-04-24T05:12:00;2.80;;;0.60;;
77457;SDS011;66541;49.346;8.648;2023-04-24T05:14:26;4.80;;;0.85;;
77457;SDS011;66541;49.346;8.648;2023-04-24T05:16:52;4.93;;;0.70;;
77457;SDS011;66541;49.346;8.648;2023-04-24T05:19:17;4.45;;;1.05;;
77457;SDS011;66541;49.346;8.648;2023-04-24T05:21:42;4.55;;;0.80;;
77457;SDS011;66541;49.346;8.648;2023-04-24T05:24:08;4.75;;;1.10;;
77457;SDS011;66541;49.346;8.648;2023-04-24T05:26:33;3.42;;;0.65;;
77457;SDS011;66541;49.346;8.648;2023-04-24T05:28:58;5.18;;;1.00;;
77457;SDS011;66541;49.346;8.648;2023-04-24T05:31:24;4.70;;;0.90;;
77457;SDS011;66541;49.346;8.648;2023-04-24T05:33:50;4.40;;;1.10;;
77457;SDS011;66541;49.346;8.648;2023-04-24T05:36:15;5.15;;;1.08;;
77457;SDS011;66541;49.346;8.648;2023-04-24T05:38:40;4.80;;;1.02;;
77457;SDS011;66541;49.346;8.648;2023-04-24T05:41:06;2.92;;;0.60;;
77457;SDS011;66541;49.346;8.648;2023-04-24T05:43:31;5.28;;;0.80;;
77457;SDS011;66541;49.346;8.648;2023-04-24T05:45:56;3.97;;;0.95;;
77457;SDS011;66541;49.346;8.648;2023-04-24T05:48:22;4.18;;;1.00;;
77457;SDS011;66541;49.346;8.648;2023-04-24T05:50:47;4.35;;;0.85;;
77457;SDS011;66541;49.346;8.648;2023-04-24T05:53:13;4.90;;;0.80;;
77457;SDS011;66541;49.346;8.648;2023-04-24T05:55:38;6.15;;;1.13;;
77457;SDS011;66541;49.346;8.648;2023-04-24T05:58:04;4.75;;;1.08;;
77457;SDS011;66541;49.346;8.648;2023-04-24T06:00:29;4.10;;;0.88;;
77457;SDS011;66541;49.346;8.648;2023-04-24T06:02:55;4.90;;;1.02;;
77457;SDS011;66541;49.346;8.648;2023-04-24T06:05:20;6.68;;;1.15;;
77457;SDS011;66541;49.346;8.648;2023-04-24T06:07:45;4.60;;;1.20;;
77457;SDS011;66541;49.346;8.648;2023-04-24T06:10:13;5.55;;;1.20;;
77457;SDS011;66541;49.346;8.648;2023-04-24T06:12:38;4.85;;;1.38;;
77457;SDS011;66541;49.346;8.648;2023-04-24T06:15:04;4.93;;;1.10;;
77457;SDS011;66541;49.346;8.648;2023-04-24T06:17:30;5.72;;;1.45;;
77457;SDS011;66541;49.346;8.648;2023-04-24T06:19:55;4.68;;;1.20;;
77457;SDS011;66541;49.346;8.648;2023-04-24T06:22:21;8.48;;;1.63;;
77457;SDS011;66541;49.346;8.648;2023-04-24T06:24:46;4.63;;;1.02;;
77457;SDS011;66541;49.346;8.648;2023-04-24T06:27:13;5.28;;;1.13;;
77457;SDS011;66541;49.346;8.648;2023-04-24T06:29:38;4.32;;;1.00;;
77457;SDS011;66541;49.346;8.648;2023-04-24T06:32:03;4.70;;;1.10;;
77457;SDS011;66541;49.346;8.648;2023-04-24T06:34:29;5.25;;;0.93;;
77457;SDS011;66541;49.346;8.648;2023-04-24T06:36:55;5.78;;;1.30;;
77457;SDS011;66541;49.346;8.648;2023-04-24T06:39:21;4.53;;;1.08;;
77457;SDS011;66541;49.346;8.648;2023-04-24T06:41:46;5.55;;;1.23;;
77457;SDS011;66541;49.346;8.648;2023-04-24T06:44:11;5.50;;;1.00;;
77457;SDS011;66541;49.346;8.648;2023-04-24T06:46:39;4.13;;;1.00;;
77457;SDS011;66541;49.346;8.648;2023-04-24T06:49:05;7.88;;;1.48;;
77457;SDS011;66541;49.346;8.648;2023-04-24T06:51:30;6.03;;;1.10;;
77457;SDS011;66541;49.346;8.648;2023-04-24T06:53:57;3.72;;;0.90;;
77457;SDS011;66541;49.346;8.648;2023-04-24T06:56:23;4.32;;;0.90;;
77457;SDS011;66541;49.346;8.648;2023-04-24T06:58:48;3.78;;;0.98;;
77457;SDS011;66541;49.346;8.648;2023-04-24T07:01:13;4.72;;;0.93;;
77457;SDS011;66541;49.346;8.648;2023-04-24T07:03:39;4.88;;;0.82;;
77457;SDS011;66541;49.346;8.648;2023-04-24T07:06:04;5.85;;;1.10;;
77457;SDS011;66541;49.346;8.648;2023-04-24T07:08:30;5.93;;;1.02;;
77457;SDS011;66541;49.346;8.648;2023-04-24T07:10:56;4.30;;;1.00;;
77457;SDS011;66541;49.346;8.648;2023-04-24T07:13:22;3.65;;;0.93;;
77457;SDS011;66541;49.346;8.648;2023-04-24T07:15:47;3.67;;;0.70;;
77457;SDS011;66541;49.346;8.648;2023-04-24T07:18:15;3.13;;;0.68;;
77457;SDS011;66541;49.346;8.648;2023-04-24T07:20:40;5.00;;;0.90;;
77457;SDS011;66541;49.346;8.648;2023-04-24T07:23:06;3.25;;;0.70;;
77457;SDS011;66541;49.346;8.648;2023-04-24T07:25:31;5.65;;;0.73;;
77457;SDS011;66541;49.346;8.648;2023-04-24T07:27:56;5.25;;;0.70;;
77457;SDS011;66541;49.346;8.648;2023-04-24T07:30:22;4.15;;;0.90;;
77457;SDS011;66541;49.346;8.648;2023-04-24T07:32:47;5.40;;;0.98;;
77457;SDS011;66541;49.346;8.648;2023-04-24T07:35:12;3.85;;;0.70;;
77457;SDS011;66541;49.346;8.648;2023-04-24T07:37:38;3.17;;;0.50;;
77457;SDS011;66541;49.346;8.648;2023-04-24T07:40:03;4.30;;;0.63;;
77457;SDS011;66541;49.346;8.648;2023-04-24T07:42:29;4.03;;;0.80;;
77457;SDS011;66541;49.346;8.648;2023-04-24T07:44:59;4.50;;;0.60;;
77457;SDS011;66541;49.346;8.648;2023-04-24T07:47:24;3.95;;;0.63;;
77457;SDS011;66541;49.346;8.648;2023-04-24T07:49:50;2.33;;;0.60;;
77457;SDS011;66541;49.346;8.648;2023-04-24T07:52:15;2.80;;;0.60;;
77457;SDS011;66541;49.346;8.648;2023-04-24T07:54:40;3.10;;;0.50;;
77457;SDS011;66541;49.346;8.648;2023-04-24T07:57:07;3.80;;;0.70;;
77457;SDS011;66541;49.346;8.648;2023-04-24T07:59:33;2.95;;;0.52;;
77457;SDS011;66541;49.346;8.648;2023-04-24T08:01:58;4.45;;;0.70;;
77457;SDS011;66541;49.346;8.648;2023-04-24T08:04:24;4.13;;;0.77;;
77457;SDS011;66541;49.346;8.648;2023-04-24T08:06:49;4.35;;;0.73;;
77457;SDS011;66541;49.346;8.648;2023-04-24T08:09:14;5.85;;;0.80;;
77457;SDS011;66541;49.346;8.648;2023-04-24T08:11:40;3.60;;;0.70;;
77457;SDS011;66541;49.346;8.648;2023-04-24T08:14:05;4.07;;;0.93;;
77457;SDS011;66541;49.346;8.648;2023-04-24T08:16:32;4.82;;;0.80;;
77457;SDS011;66541;49.346;8.648;2023-04-24T08:18:57;4.68;;;0.98;;
77457;SDS011;66541;49.346;8.648;2023-04-24T08:21:23;5.30;;;0.70;;
77457;SDS011;66541;49.346;8.648;2023-04-24T08:23:48;3.55;;;0.73;;
77457;SDS011;66541;49.346;8.648;2023-04-24T08:26:13;4.28;;;1.05;;
77457;SDS011;66541;49.346;8.648;2023-04-24T08:28:39;3.58;;;0.75;;
77457;SDS011;66541;49.346;8.648;2023-04-24T08:31:04;3.00;;;0.50;;
77457;SDS011;66541;49.346;8.648;2023-04-24T08:33:30;3.78;;;0.68;;
77457;SDS011;66541;49.346;8.648;2023-04-24T08:35:59;1.98;;;0.43;;
77457;SDS011;66541;49.346;8.648;2023-04-24T08:38:28;3.75;;;0.50;;
77457;SDS011;66541;49.346;8.648;2023-04-24T08:40:53;3.97;;;0.90;;
77457;SDS011;66541;49.346;8.648;2023-04-24T08:43:20;3.15;;;0.40;;
77457;SDS011;66541;49.346;8.648;2023-04-24T08:45:48;4.20;;;0.63;;
77457;SDS011;66541;49.346;8.648;2023-04-24T08:48:14;3.78;;;0.40;;
77457;SDS011;66541;49.346;8.648;2023-04-24T08:50:40;3.72;;;0.50;;
77457;SDS011;66541;49.346;8.648;2023-04-24T08:53:07;4.38;;;0.50;;
77457;SDS011;66541;49.346;8.648;2023-04-24T08:55:33;3.75;;;0.52;;
77457;SDS011;66541;49.346;8.648;2023-04-24T08:57:59;3.35;;;0.45;;
77457;SDS011;66541;49.346;8.648;2023-04-24T09:00:26;2.78;;;0.60;;
77457;SDS011;66541;49.346;8.648;2023-04-24T09:02:51;5.30;;;0.70;;
77457;SDS011;66541;49.346;8.648;2023-04-24T09:05:18;3.78;;;0.57;;
77457;SDS011;66541;49.346;8.648;2023-04-24T09:07:49;3.95;;;0.77;;
77457;SDS011;66541;49.346;8.648;2023-04-24T09:10:20;3.03;;;0.50;;
77457;SDS011;66541;49.346;8.648;2023-04-24T09:12:46;3.55;;;0.52;;
77457;SDS011;66541;49.346;8.648;2023-04-24T09:15:11;3.38;;;0.55;;
77457;SDS011;66541;49.346;8.648;2023-04-24T09:17:37;3.08;;;0.70;;
77457;SDS011;66541;49.346;8.648;2023-04-24T09:20:03;3.25;;;0.50;;
77457;SDS011;66541;49.346;8.648;2023-04-24T09:22:29;3.42;;;0.40;;
77457;SDS011;66541;49.346;8.648;2023-04-24T09:25:02;4.82;;;0.77;;
77457;SDS011;66541;49.346;8.648;2023-04-24T09:27:32;3.47;;;0.60;;
77457;SDS011;66541;49.346;8.648;2023-04-24T09:29:58;3.13;;;0.50;;
77457;SDS011;66541;49.346;8.648;2023-04-24T09:32:24;4.05;;;0.80;;
77457;SDS011;66541;49.346;8.648;2023-04-24T09:35:04;2.92;;;0.40;;
77457;SDS011;66541;49.346;8.648;2023-04-24T09:37:43;4.53;;;0.80;;
77457;SDS011;66541;49.346;8.648;2023-04-24T09:40:17;2.35;;;0.32;;
77457;SDS011;66541;49.346;8.648;2023-04-24T09:42:44;2.00;;;0.35;;
77457;SDS011;66541;49.346;8.648;2023-04-24T09:45:11;2.95;;;0.55;;
77457;SDS011;66541;49.346;8.648;2023-04-24T09:47:39;3.72;;;0.70;;
77457;SDS011;66541;49.346;8.648;2023-04-24T09:50:12;2.72;;;0.70;;
77457;SDS011;66541;49.346;8.648;2023-04-24T09:52:47;3.67;;;0.55;;
77457;SDS011;66541;49.346;8.648;2023-04-24T09:55:24;3.25;;;0.73;;
77457;SDS011;66541;49.346;8.648;2023-04-24T09:57:53;3.95;;;0.70;;
77457;SDS011;66541;49.346;8.648;2023-04-24T10:05:26;4.43;;;0.60;;
77457;SDS011;66541;49.346;8.648;2023-04-24T10:07:56;3.78;;;0.80;;
77457;SDS011;66541;49.346;8.648;2023-04-24T10:10:24;4.15;;;0.85;;
77457;SDS011;66541;49.346;8.648;2023-04-24T10:12:50;4.35;;;1.23;;
77457;SDS011;66541;49.346;8.648;2023-04-24T10:15:16;3.78;;;0.88;;
77457;SDS011;66541;49.346;8.648;2023-04-24T10:17:45;3.50;;;0.70;;
77457;SDS011;66541;49.346;8.648;2023-04-24T10:20:17;4.22;;;0.80;;
77457;SDS011;66541;49.346;8.648;2023-04-24T10:22:43;5.07;;;1.00;;
77457;SDS011;66541;49.346;8.648;2023-04-24T10:25:11;4.70;;;1.42;;
77457;SDS011;66541;49.346;8.648;2023-04-24T10:27:37;4.22;;;1.00;;
77457;SDS011;66541;49.346;8.648;2023-04-24T10:30:03;6.97;;;1.10;;
77457;SDS011;66541;49.346;8.648;2023-04-24T10:32:31;5.70;;;1.20;;
77457;SDS011;66541;49.346;8.648;2023-04-24T10:34:57;3.50;;;0.85;;
77457;SDS011;66541;49.346;8.648;2023-04-24T10:37:22;5.03;;;0.80;;
77457;SDS011;66541;49.346;8.648;2023-04-24T10:39:48;3.22;;;0.70;;
77457;SDS011;66541;49.346;8.648;2023-04-24T10:42:15;5.72;;;1.10;;
77457;SDS011;66541;49.346;8.648;2023-04-24T10:44:41;2.05;;;0.50;;
77457;SDS011;66541;49.346;8.648;2023-04-24T10:47:07;7.32;;;0.63;;
77457;SDS011;66541;49.346;8.648;2023-04-24T10:49:37;5.82;;;1.00;;
77457;SDS011;66541;49.346;8.648;2023-04-24T10:52:03;4.43;;;0.75;;
77457;SDS011;66541;49.346;8.648;2023-04-24T10:54:41;3.78;;;0.60;;
77457;SDS011;66541;49.346;8.648;2023-04-24T10:59:47;5.25;;;1.02;;
77457;SDS011;66541;49.346;8.648;2023-04-24T11:02:17;5.53;;;1.30;;
77457;SDS011;66541;49.346;8.648;2023-04-24T11:04:42;4.80;;;0.90;;
77457;SDS011;66541;49.346;8.648;2023-04-24T11:07:08;7.43;;;1.20;;
77457;SDS011;66541;49.346;8.648;2023-04-24T11:09:34;4.05;;;0.93;;
77457;SDS011;66541;49.346;8.648;2023-04-24T11:12:08;8.02;;;1.55;;
77457;SDS011;66541;49.346;8.648;2023-04-24T11:17:30;6.90;;;1.40;;
77457;SDS011;66541;49.346;8.648;2023-04-24T11:22:35;5.45;;;1.10;;
77457;SDS011;66541;49.346;8.648;2023-04-24T11:25:02;5.88;;;1.00;;
77457;SDS011;66541;49.346;8.648;2023-04-24T11:27:32;6.00;;;1.00;;
77457;SDS011;66541;49.346;8.648;2023-04-24T11:30:07;5.15;;;0.80;;
77457;SDS011;66541;49.346;8.648;2023-04-24T11:32:35;4.70;;;1.05;;
77457;SDS011;66541;49.346;8.648;2023-04-24T11:40:12;6.60;;;1.33;;
77457;SDS011;66541;49.346;8.648;2023-04-24T11:42:40;5.13;;;1.17;;
77457;SDS011;66541;49.346;8.648;2023-04-24T11:45:07;4.80;;;1.38;;
77457;SDS011;66541;49.346;8.648;2023-04-24T11:47:34;5.03;;;1.10;;
77457;SDS011;66541;49.346;8.648;2023-04-24T11:50:00;6.95;;;1.38;;
77457;SDS011;66541;49.346;8.648;2023-04-24T11:52:26;7.25;;;1.30;;
77457;SDS011;66541;49.346;8.648;2023-04-24T11:54:52;5.55;;;1.25;;
77457;SDS011;66541;49.346;8.648;2023-04-24T11:57:20;5.80;;;1.52;;
77457;SDS011;66541;49.346;8.648;2023-04-24T11:59:47;4.50;;;1.02;;
77457;SDS011;66541;49.346;8.648;2023-04-24T12:02:25;6.10;;;1.40;;
77457;SDS011;66541;49.346;8.648;2023-04-24T12:04:55;5.72;;;1.23;;
77457;SDS011;66541;49.346;8.648;2023-04-24T12:07:21;6.20;;;1.45;;
77457;SDS011;66541;49.346;8.648;2023-04-24T12:09:48;5.88;;;1.45;;
77457;SDS011;66541;49.346;8.648;2023-04-24T12:12:17;6.40;;;1.70;;
77457;SDS011;66541;49.346;8.648;2023-04-24T12:14:43;6.05;;;1.27;;
77457;SDS011;66541;49.346;8.648;2023-04-24T12:17:13;7.45;;;1.60;;
77457;SDS011;66541;49.346;8.648;2023-04-24T12:19:44;7.82;;;1.17;;
77457;SDS011;66541;49.346;8.648;2023-04-24T12:22:10;5.10;;;1.08;;
77457;SDS011;66541;49.346;8.648;2023-04-24T12:24:54;5.13;;;1.00;;
77457;SDS011;66541;49.346;8.648;2023-04-24T12:27:21;6.25;;;1.48;;
77457;SDS011;66541;49.346;8.648;2023-04-24T12:29:56;5.60;;;1.00;;
77457;SDS011;66541;49.346;8.648;2023-04-24T12:32:22;5.05;;;1.42;;
77457;SDS011;66541;49.346;8.648;2023-04-24T12:34:49;5.63;;;1.02;;
77457;SDS011;66541;49.346;8.648;2023-04-24T12:37:15;6.10;;;1.10;;
77457;SDS011;66541;49.346;8.648;2023-04-24T12:39:44;7.88;;;1.30;;
77457;SDS011;66541;49.346;8.648;2023-04-24T12:42:26;6.32;;;1.27;;
77457;SDS011;66541;49.346;8.648;2023-04-24T12:44:56;5.75;;;1.23;;
77457;SDS011;66541;49.346;8.648;2023-04-24T12:47:22;5.05;;;1.10;;
77457;SDS011;66541;49.346;8.648;2023-04-24T12:49:47;6.13;;;1.05;;
77457;SDS011;66541;49.346;8.648;2023-04-24T12:52:15;5.45;;;1.17;;
77457;SDS011;66541;49.346;8.648;2023-04-24T12:54:42;4.90;;;1.08;;
77457;SDS011;66541;49.346;8.648;2023-04-24T12:57:07;4.72;;;0.90;;
77457;SDS011;66541;49.346;8.648;2023-04-24T12:59:32;4.25;;;1.10;;
77457;SDS011;66541;49.346;8.648;2023-04-24T13:01:58;5.13;;;1.17;;
77457;SDS011;66541;49.346;8.648;2023-04-24T13:04:23;5.40;;;1.08;;
77457;SDS011;66541;49.346;8.648;2023-04-24T13:06:49;6.60;;;1.60;;
77457;SDS011;66541;49.346;8.648;2023-04-24T13:09:15;6.70;;;1.50;;
77457;SDS011;66541;49.346;8.648;2023-04-24T13:11:40;7.20;;;1.80;;
77457;SDS011;66541;49.346;8.648;2023-04-24T13:14:05;7.75;;;1.17;;
77457;SDS011;66541;49.346;8.648;2023-04-24T13:16:30;5.25;;;1.27;;
77457;SDS011;66541;49.346;8.648;2023-04-24T13:18:56;5.32;;;1.10;;
77457;SDS011;66541;49.346;8.648;2023-04-24T13:21:21;6.95;;;1.35;;
77457;SDS011;66541;49.346;8.648;2023-04-24T13:23:46;6.03;;;1.35;;
77457;SDS011;66541;49.346;8.648;2023-04-24T13:26:12;5.60;;;1.30;;
77457;SDS011;66541;49.346;8.648;2023-04-24T13:28:37;6.93;;;1.40;;
77457;SDS011;66541;49.346;8.648;2023-04-24T13:31:03;6.50;;;1.23;;
77457;SDS011;66541;49.346;8.648;2023-04-24T13:33:28;6.90;;;1.48;;
77457;SDS011;66541;49.346;8.648;2023-04-24T13:35:53;4.90;;;0.95;;
77457;SDS011;66541;49.346;8.648;2023-04-24T13:38:19;4.80;;;1.27;;
77457;SDS011;66541;49.346;8.648;2023-04-24T13:40:46;6.55;;;1.50;;
77457;SDS011;66541;49.346;8.648;2023-04-24T13:43:11;4.70;;;1.10;;
77457;SDS011;66541;49.346;8.648;2023-04-24T13:45:37;6.50;;;1.13;;
77457;SDS011;66541;49.346;8.648;2023-04-24T13:48:02;6.80;;;1.35;;
77457;SDS011;66541;49.346;8.648;2023-04-24T13:50:28;4.07;;;1.23;;
77457;SDS011;66541;49.346;8.648;2023-04-24T13:52:53;5.22;;;1.30;;
77457;SDS011;66541;49.346;8.648;2023-04-24T13:55:19;5.30;;;1.05;;
77457;SDS011;66541;49.346;8.648;2023-04-24T13:57:44;9.07;;;1.35;;
77457;SDS011;66541;49.346;8.648;2023-04-24T14:00:10;4.38;;;1.00;;
77457;SDS011;66541;49.346;8.648;2023-04-24T14:02:36;5.40;;;1.50;;
77457;SDS011;66541;49.346;8.648;2023-04-24T14:05:01;5.93;;;1.50;;
77457;SDS011;66541;49.346;8.648;2023-04-24T14:07:28;6.57;;;1.15;;
77457;SDS011;66541;49.346;8.648;2023-04-24T14:09:53;7.65;;;1.50;;
77457;SDS011;66541;49.346;8.648;2023-04-24T14:12:19;6.18;;;1.27;;
77457;SDS011;66541;49.346;8.648;2023-04-24T14:14:46;6.60;;;1.20;;
77457;SDS011;66541;49.346;8.648;2023-04-24T14:17:12;5.72;;;1.05;;
77457;SDS011;66541;49.346;8.648;2023-04-24T14:19:37;4.25;;;1.00;;
77457;SDS011;66541;49.346;8.648;2023-04-24T14:22:02;6.53;;;1.50;;
77457;SDS011;66541;49.346;8.648;2023-04-24T14:24:28;5.43;;;1.60;;
77457;SDS011;66541;49.346;8.648;2023-04-24T14:26:53;4.68;;;0.80;;
77457;SDS011;66541;49.346;8.648;2023-04-24T14:29:18;5.32;;;1.05;;
77457;SDS011;66541;49.346;8.648;2023-04-24T14:31:44;5.00;;;0.98;;
77457;SDS011;66541;49.346;8.648;2023-04-24T14:34:09;4.88;;;1.08;;
77457;SDS011;66541;49.346;8.648;2023-04-24T14:36:35;4.38;;;1.00;;
77457;SDS011;66541;49.346;8.648;2023-04-24T14:39:00;5.97;;;1.67;;
77457;SDS011;66541;49.346;8.648;2023-04-24T14:41:30;5.53;;;1.40;;
77457;SDS011;66541;49.346;8.648;2023-04-24T14:43:56;5.82;;;1.15;;
77457;SDS011;66541;49.346;8.648;2023-04-24T14:46:21;4.82;;;0.90;;
77457;SDS011;66541;49.346;8.648;2023-04-24T14:48:47;7.45;;;1.20;;
77457;SDS011;66541;49.346;8.648;2023-04-24T14:51:12;3.70;;;0.95;;
77457;SDS011;66541;49.346;8.648;2023-04-24T14:53:37;5.63;;;1.17;;
77457;SDS011;66541;49.346;8.648;2023-04-24T14:56:03;4.47;;;0.93;;
77457;SDS011;66541;49.346;8.648;2023-04-24T14:58:28;5.38;;;1.23;;
77457;SDS011;66541;49.346;8.648;2023-04-24T15:00:53;5.88;;;1.20;;